Time;durP1;ratioP1;P1;durP2;ratioP2;P2;SDS_P1;SDS_P2;PMS_P1;PMS_P2;Temp;Humidity;BMP_temperature;BMP_pressure;BME280_temperature;BME280_humidity;BME280_pressure;Samples;Min_cycle;Max_cycle;Signal;HPM_P1;HPM_P2
2021/04/07 00:00:50;;;;;;;0.90;0.60;;;;;;;;;;5069571;28;20431;-75
2021/04/07 00:03:16;;;;;;;0.77;0.60;;;;;;;;;;5061921;28;20995;-76
2021/04/07 00:05:45;;;;;;;0.70;0.50;;;;;;;;;;5060620;28;20413;-75
2021/04/07 00:08:14;;;;;;;0.80;0.73;;;;;;;;;;5061480;28;20434;-76
2021/04/07 00:10:41;;;;;;;5.13;1.27;;;;;;;;;;5068457;28;20814;-77
2021/04/07 00:13:08;;;;;;;0.70;0.60;;;;;;;;;;5059708;28;20405;-75
2021/04/07 00:15:35;;;;;;;1.10;0.80;;;;;;;;;;5035206;28;20833;-77
2021/04/07 00:18:02;;;;;;;2.23;0.60;;;;;;;;;;5066688;28;20415;-76
2021/04/07 00:20:29;;;;;;;0.90;0.80;;;;;;;;;;5038951;28;20443;-77
2021/04/07 00:22:55;;;;;;;2.60;0.73;;;;;;;;;;5050261;28;20462;-74
2021/04/07 00:25:21;;;;;;;0.80;0.70;;;;;;;;;;5052941;28;20485;-75
2021/04/07 00:27:56;;;;;;;1.47;0.93;;;;;;;;;;5052639;28;20395;-77
2021/04/07 00:30:26;;;;;;;0.70;0.50;;;;;;;;;;5034655;28;20520;-76
2021/04/07 00:32:52;;;;;;;0.70;0.50;;;;;;;;;;5052947;28;20450;-76
2021/04/07 00:35:18;;;;;;;0.70;0.50;;;;;;;;;;5051200;28;20620;-76
2021/04/07 00:37:44;;;;;;;0.70;0.40;;;;;;;;;;5052869;28;20435;-76
2021/04/07 00:40:10;;;;;;;0.70;0.50;;;;;;;;;;5034849;28;20431;-74
2021/04/07 00:42:37;;;;;;;0.80;0.60;;;;;;;;;;5034482;28;20423;-76
2021/04/07 00:45:07;;;;;;;0.70;0.50;;;;;;;;;;5052894;28;20407;-73
2021/04/07 00:47:33;;;;;;;0.70;0.50;;;;;;;;;;5037858;28;20475;-73
2021/04/07 00:49:59;;;;;;;0.70;0.50;;;;;;;;;;5070959;28;20458;-73
2021/04/07 00:52:25;;;;;;;0.70;0.50;;;;;;;;;;5070657;28;21008;-74
2021/04/07 00:54:53;;;;;;;0.70;0.50;;;;;;;;;;5054792;28;20479;-76
2021/04/07 00:57:19;;;;;;;0.70;0.40;;;;;;;;;;5070106;28;20434;-77
2021/04/07 00:59:46;;;;;;;0.70;0.50;;;;;;;;;;5072349;28;20422;-77
2021/04/07 01:02:12;;;;;;;0.70;0.50;;;;;;;;;;5061315;28;20912;-78
2021/04/07 01:04:38;;;;;;;1.17;0.63;;;;;;;;;;5058849;28;20396;-74
2021/04/07 01:07:04;;;;;;;0.80;0.77;;;;;;;;;;5074300;28;20764;-78
2021/04/07 01:09:30;;;;;;;0.80;0.73;;;;;;;;;;5073988;28;20433;-75
2021/04/07 01:11:56;;;;;;;0.70;0.57;;;;;;;;;;5083011;28;20418;-74
2021/04/07 01:14:22;;;;;;;0.70;0.50;;;;;;;;;;5072053;28;20408;-75
2021/04/07 01:16:48;;;;;;;0.70;0.50;;;;;;;;;;5053586;28;20506;-76
2021/04/07 01:19:16;;;;;;;1.00;0.80;;;;;;;;;;5035802;28;20430;-77
2021/04/07 01:21:43;;;;;;;0.70;0.60;;;;;;;;;;5060244;28;20427;-78
2021/04/07 01:24:09;;;;;;;1.63;0.77;;;;;;;;;;5051740;28;20541;-72
2021/04/07 01:26:35;;;;;;;3.03;2.40;;;;;;;;;;5033760;28;20411;-72
2021/04/07 01:29:01;;;;;;;0.80;0.50;;;;;;;;;;5055430;28;20525;-77
2021/04/07 01:31:27;;;;;;;0.70;0.50;;;;;;;;;;5063431;28;20498;-76
2021/04/07 01:33:53;;;;;;;0.70;0.50;;;;;;;;;;5060771;28;20420;-77
2021/04/07 01:36:28;;;;;;;1.10;0.90;;;;;;;;;;5072535;28;20402;-77
2021/04/07 01:38:54;;;;;;;0.70;0.53;;;;;;;;;;5073465;28;20418;-78
2021/04/07 01:41:21;;;;;;;0.70;0.63;;;;;;;;;;5073298;28;20773;-77
2021/04/07 01:43:48;;;;;;;0.80;0.60;;;;;;;;;;5055069;28;20426;-76
2021/04/07 01:46:15;;;;;;;0.70;0.70;;;;;;;;;;5053927;28;20497;-76
2021/04/07 01:48:41;;;;;;;0.90;0.70;;;;;;;;;;5072434;28;20474;-76
2021/04/07 01:51:07;;;;;;;1.23;1.13;;;;;;;;;;5061843;28;20462;-76
2021/04/07 01:53:33;;;;;;;0.70;0.50;;;;;;;;;;5072899;28;20457;-77
2021/04/07 01:55:59;;;;;;;0.70;0.60;;;;;;;;;;5081617;28;20414;-76
2021/04/07 01:58:25;;;;;;;0.70;0.60;;;;;;;;;;5088320;28;20824;-74
2021/04/07 02:00:51;;;;;;;1.43;0.50;;;;;;;;;;5074927;28;20427;-74
2021/04/07 02:03:17;;;;;;;0.70;0.50;;;;;;;;;;5071578;28;20410;-74
2021/04/07 02:05:43;;;;;;;0.70;0.50;;;;;;;;;;5070631;28;20475;-72
2021/04/07 02:08:09;;;;;;;0.70;0.50;;;;;;;;;;5070086;28;20398;-78
2021/04/07 02:10:35;;;;;;;0.70;0.50;;;;;;;;;;5057080;28;20454;-77
2021/04/07 02:13:03;;;;;;;0.70;0.60;;;;;;;;;;5057644;28;20480;-76
2021/04/07 02:15:29;;;;;;;0.70;0.50;;;;;;;;;;5056653;28;20414;-77
2021/04/07 02:17:55;;;;;;;0.70;0.50;;;;;;;;;;5049861;28;20403;-77
2021/04/07 02:20:22;;;;;;;0.70;0.50;;;;;;;;;;5065635;28;21257;-78
2021/04/07 02:22:50;;;;;;;0.80;0.60;;;;;;;;;;5077694;28;20429;-78
2021/04/07 02:25:16;;;;;;;0.70;0.50;;;;;;;;;;5057889;28;20430;-78
2021/04/07 02:27:43;;;;;;;0.70;0.50;;;;;;;;;;5056378;28;20406;-77
2021/04/07 02:30:10;;;;;;;0.70;0.50;;;;;;;;;;5037991;28;20459;-77
2021/04/07 02:32:36;;;;;;;0.80;0.60;;;;;;;;;;5044626;28;20415;-77
2021/04/07 02:35:03;;;;;;;0.70;0.60;;;;;;;;;;5053966;28;20945;-76
2021/04/07 02:37:31;;;;;;;0.80;0.50;;;;;;;;;;5054936;28;20421;-77
2021/04/07 02:39:58;;;;;;;0.90;0.80;;;;;;;;;;5044291;28;20487;-76
2021/04/07 02:42:24;;;;;;;0.90;0.77;;;;;;;;;;5056677;28;20414;-74
2021/04/07 02:44:51;;;;;;;0.70;0.40;;;;;;;;;;5074774;28;20398;-74
2021/04/07 02:47:17;;;;;;;0.70;0.40;;;;;;;;;;5053319;28;20411;-75
2021/04/07 02:49:46;;;;;;;1.50;1.00;;;;;;;;;;5054662;28;20497;-75
2021/04/07 02:52:12;;;;;;;0.70;0.60;;;;;;;;;;5068233;28;20402;-75
2021/04/07 02:54:38;;;;;;;0.70;0.50;;;;;;;;;;5074632;28;20928;-74
2021/04/07 02:57:05;;;;;;;1.23;1.00;;;;;;;;;;5073523;28;20387;-75
2021/04/07 02:59:31;;;;;;;2.13;1.03;;;;;;;;;;5074603;28;20428;-74
2021/04/07 03:01:57;;;;;;;2.50;0.80;;;;;;;;;;5070735;28;20430;-74
2021/04/07 03:04:23;;;;;;;0.70;0.50;;;;;;;;;;5063146;28;20414;-74
2021/04/07 03:06:49;;;;;;;0.70;0.60;;;;;;;;;;5073572;28;20406;-73
2021/04/07 03:09:15;;;;;;;0.70;0.60;;;;;;;;;;5073332;28;20423;-73
2021/04/07 03:11:43;;;;;;;1.20;1.10;;;;;;;;;;5073135;28;20464;-73
2021/04/07 03:14:09;;;;;;;0.70;0.50;;;;;;;;;;5036541;28;20469;-74
2021/04/07 03:16:35;;;;;;;0.70;0.50;;;;;;;;;;5036671;28;20411;-75
2021/04/07 03:19:01;;;;;;;0.70;0.60;;;;;;;;;;5051344;28;20944;-74
2021/04/07 03:21:30;;;;;;;2.03;1.83;;;;;;;;;;5074436;28;20429;-73
2021/04/07 03:23:56;;;;;;;1.07;0.60;;;;;;;;;;5073983;28;21010;-75
2021/04/07 03:26:22;;;;;;;0.70;0.60;;;;;;;;;;5056485;28;20513;-76
2021/04/07 03:28:48;;;;;;;0.80;0.70;;;;;;;;;;5056023;28;20923;-74
2021/04/07 03:31:14;;;;;;;0.70;0.50;;;;;;;;;;5055889;28;21001;-76
2021/04/07 03:33:40;;;;;;;0.70;0.50;;;;;;;;;;5056121;28;20560;-74
2021/04/07 03:36:07;;;;;;;0.70;0.70;;;;;;;;;;5056035;28;20191;-74
2021/04/07 03:38:33;;;;;;;0.70;0.50;;;;;;;;;;5072461;28;20393;-76
2021/04/07 03:40:59;;;;;;;0.70;0.50;;;;;;;;;;5068477;28;20787;-75
2021/04/07 03:43:25;;;;;;;2.60;1.13;;;;;;;;;;5068362;28;20464;-75
2021/04/07 03:45:52;;;;;;;0.90;0.70;;;;;;;;;;5063666;28;20762;-74
2021/04/07 03:48:19;;;;;;;0.70;0.68;;;;;;;;;;5064288;28;20421;-73
2021/04/07 03:50:46;;;;;;;0.90;0.67;;;;;;;;;;5055446;28;20332;-72
2021/04/07 03:53:13;;;;;;;0.70;0.60;;;;;;;;;;5051896;28;20448;-73
2021/04/07 03:55:39;;;;;;;0.80;0.80;;;;;;;;;;5036448;28;20492;-73
2021/04/07 03:58:05;;;;;;;0.80;0.55;;;;;;;;;;5072121;28;20174;-74
2021/04/07 04:00:31;;;;;;;2.00;0.75;;;;;;;;;;5071878;28;20184;-73
2021/04/07 04:02:57;;;;;;;0.70;0.60;;;;;;;;;;5071641;28;20168;-73
2021/04/07 04:05:24;;;;;;;0.80;0.65;;;;;;;;;;5054767;28;20181;-74
2021/04/07 04:07:50;;;;;;;2.70;0.60;;;;;;;;;;5060248;28;20174;-74
2021/04/07 04:10:16;;;;;;;0.70;0.50;;;;;;;;;;5075317;28;20963;-73
2021/04/07 04:12:42;;;;;;;0.70;0.50;;;;;;;;;;5062211;28;20422;-73
2021/04/07 04:15:11;;;;;;;1.00;0.90;;;;;;;;;;5072680;28;20402;-73
2021/04/07 04:17:38;;;;;;;0.70;0.50;;;;;;;;;;5071934;28;20398;-73
2021/04/07 04:20:05;;;;;;;0.70;0.50;;;;;;;;;;5072815;28;20190;-72
2021/04/07 04:22:31;;;;;;;0.75;0.63;;;;;;;;;;5072682;28;20525;-73
2021/04/07 04:24:57;;;;;;;1.03;0.93;;;;;;;;;;5072985;28;20687;-73
2021/04/07 04:27:23;;;;;;;0.70;0.50;;;;;;;;;;5055168;28;20402;-72
2021/04/07 04:29:49;;;;;;;2.83;1.27;;;;;;;;;;5051327;28;20971;-75
2021/04/07 04:32:15;;;;;;;0.70;0.50;;;;;;;;;;5059742;28;20175;-75
2021/04/07 04:34:41;;;;;;;0.70;0.50;;;;;;;;;;5073656;28;20821;-75
2021/04/07 04:37:07;;;;;;;0.70;0.50;;;;;;;;;;5072156;28;20171;-74
2021/04/07 04:39:34;;;;;;;0.80;0.80;;;;;;;;;;5071360;28;20878;-74
2021/04/07 04:42:00;;;;;;;1.45;1.02;;;;;;;;;;5055706;28;20808;-73
2021/04/07 04:44:26;;;;;;;1.45;0.60;;;;;;;;;;5044003;28;20648;-74
2021/04/07 04:46:52;;;;;;;0.80;0.80;;;;;;;;;;5065928;28;20171;-73
2021/04/07 04:49:18;;;;;;;0.70;0.50;;;;;;;;;;5052540;28;20522;-74
2021/04/07 04:51:44;;;;;;;0.90;0.90;;;;;;;;;;5054409;28;21079;-77
2021/04/07 04:54:10;;;;;;;0.80;0.77;;;;;;;;;;5071062;28;20459;-74
2021/04/07 04:56:39;;;;;;;0.70;0.50;;;;;;;;;;5060973;28;20176;-73
2021/04/07 04:59:05;;;;;;;0.80;0.70;;;;;;;;;;5036265;28;20947;-74
2021/04/07 05:01:31;;;;;;;2.13;2.03;;;;;;;;;;5069298;28;20407;-74
2021/04/07 05:03:57;;;;;;;0.70;0.50;;;;;;;;;;5052635;28;20168;-75
2021/04/07 05:06:23;;;;;;;0.80;0.70;;;;;;;;;;5064726;28;20405;-74
2021/04/07 05:08:49;;;;;;;0.80;0.77;;;;;;;;;;5088395;28;20174;-75
2021/04/07 05:11:15;;;;;;;0.70;0.60;;;;;;;;;;5046500;28;20537;-74
2021/04/07 05:13:41;;;;;;;0.80;0.60;;;;;;;;;;5052899;28;20413;-74
2021/04/07 05:16:07;;;;;;;1.10;0.97;;;;;;;;;;5038799;28;20456;-73
2021/04/07 05:18:33;;;;;;;0.80;0.80;;;;;;;;;;5082161;28;20418;-74
2021/04/07 05:20:59;;;;;;;0.90;0.80;;;;;;;;;;5076691;28;20438;-73
2021/04/07 05:23:26;;;;;;;1.27;1.00;;;;;;;;;;5091440;28;20383;-72
2021/04/07 05:25:52;;;;;;;4.10;2.27;;;;;;;;;;5084064;28;20390;-73
2021/04/07 05:28:17;;;;;;;1.07;0.83;;;;;;;;;;5068846;28;20422;-74
2021/04/07 05:30:59;;;;;;;0.70;0.50;;;;;;;;;;5049552;28;20473;-74
2021/04/07 05:33:26;;;;;;;0.70;0.50;;;;;;;;;;5070168;28;20467;-73
2021/04/07 05:35:56;;;;;;;2.88;1.35;;;;;;;;;;5057538;28;20164;-74
2021/04/07 05:38:23;;;;;;;1.10;0.60;;;;;;;;;;5058001;28;20662;-75
2021/04/07 05:40:52;;;;;;;0.70;0.50;;;;;;;;;;5033533;28;20272;-74
2021/04/07 05:43:18;;;;;;;0.70;0.60;;;;;;;;;;5053228;28;20338;-74
2021/04/07 05:45:44;;;;;;;0.95;0.57;;;;;;;;;;5050166;28;20685;-75
2021/04/07 05:48:10;;;;;;;2.63;2.30;;;;;;;;;;5051649;28;20173;-74
2021/04/07 05:50:41;;;;;;;1.10;1.00;;;;;;;;;;5070940;28;20540;-74
2021/04/07 05:53:07;;;;;;;1.20;1.10;;;;;;;;;;5067922;28;20428;-75
2021/04/07 05:55:33;;;;;;;1.10;1.00;;;;;;;;;;5052956;28;20408;-74
2021/04/07 05:58:00;;;;;;;0.80;0.80;;;;;;;;;;5071452;28;20394;-74
2021/04/07 06:00:27;;;;;;;1.20;1.13;;;;;;;;;;5052812;28;20434;-74
2021/04/07 06:02:56;;;;;;;1.43;0.90;;;;;;;;;;5063516;28;20504;-74
2021/04/07 06:05:23;;;;;;;0.77;0.57;;;;;;;;;;5066337;28;20805;-74
2021/04/07 06:07:49;;;;;;;0.93;0.83;;;;;;;;;;5073596;28;20411;-75
2021/04/07 06:10:15;;;;;;;0.90;0.77;;;;;;;;;;5065482;28;20485;-75
2021/04/07 06:12:41;;;;;;;2.60;0.80;;;;;;;;;;5068184;28;20767;-75
2021/04/07 06:15:08;;;;;;;1.43;0.73;;;;;;;;;;5060754;28;20493;-75
2021/04/07 06:17:35;;;;;;;1.00;0.60;;;;;;;;;;5060981;28;20507;-74
2021/04/07 06:20:01;;;;;;;0.73;0.50;;;;;;;;;;5066623;28;20833;-74
2021/04/07 06:22:27;;;;;;;1.43;1.33;;;;;;;;;;5051313;28;20435;-75
2021/04/07 06:24:53;;;;;;;0.80;0.53;;;;;;;;;;5073083;28;20410;-72
2021/04/07 06:27:19;;;;;;;0.73;0.60;;;;;;;;;;5051996;28;20441;-73
2021/04/07 06:29:45;;;;;;;1.00;0.60;;;;;;;;;;5065878;28;20461;-73
2021/04/07 06:32:11;;;;;;;0.70;0.60;;;;;;;;;;5068195;28;20404;-71
2021/04/07 06:34:39;;;;;;;1.83;1.53;;;;;;;;;;5065505;28;20888;-71
2021/04/07 06:37:05;;;;;;;1.13;0.70;;;;;;;;;;5063417;28;20931;-71
2021/04/07 06:39:31;;;;;;;0.70;0.60;;;;;;;;;;5058378;28;20434;-72
2021/04/07 06:41:57;;;;;;;0.83;0.83;;;;;;;;;;5047336;28;20422;-71
2021/04/07 06:44:23;;;;;;;1.10;0.60;;;;;;;;;;5058830;28;20416;-71
2021/04/07 06:46:49;;;;;;;1.20;0.87;;;;;;;;;;5058211;28;20399;-71
2021/04/07 06:49:16;;;;;;;0.80;0.60;;;;;;;;;;5059772;28;20836;-71
2021/04/07 06:51:44;;;;;;;1.00;0.70;;;;;;;;;;5059640;28;20456;-71
2021/04/07 06:54:10;;;;;;;0.87;0.60;;;;;;;;;;5058092;28;20427;-71
2021/04/07 06:56:36;;;;;;;0.70;0.50;;;;;;;;;;5063315;28;20498;-71
2021/04/07 06:59:03;;;;;;;1.47;0.70;;;;;;;;;;5063610;28;20525;-70
2021/04/07 07:01:29;;;;;;;1.40;0.93;;;;;;;;;;5049421;28;20407;-69
2021/04/07 07:03:55;;;;;;;2.03;0.97;;;;;;;;;;5063539;28;20489;-70
2021/04/07 07:06:21;;;;;;;0.80;0.70;;;;;;;;;;5066566;28;20573;-70
2021/04/07 07:08:48;;;;;;;1.00;0.53;;;;;;;;;;5064562;28;20477;-69
2021/04/07 07:11:17;;;;;;;0.70;0.57;;;;;;;;;;5067262;28;20486;-71
2021/04/07 07:13:46;;;;;;;3.23;1.20;;;;;;;;;;5070900;28;20426;-72
2021/04/07 07:16:12;;;;;;;0.97;0.70;;;;;;;;;;5056143;28;20495;-73
2021/04/07 07:18:42;;;;;;;0.87;0.70;;;;;;;;;;5055356;28;20430;-71
2021/04/07 07:21:13;;;;;;;0.93;0.87;;;;;;;;;;5072031;28;20448;-73
2021/04/07 07:23:40;;;;;;;0.70;0.50;;;;;;;;;;5069620;28;20572;-71
2021/04/07 07:26:10;;;;;;;0.70;0.50;;;;;;;;;;5066455;28;20417;-73
2021/04/07 07:28:54;;;;;;;0.70;0.50;;;;;;;;;;5066221;28;20402;-73
2021/04/07 07:31:23;;;;;;;1.03;0.80;;;;;;;;;;5064117;28;20460;-73
2021/04/07 07:33:49;;;;;;;0.70;0.50;;;;;;;;;;5055065;28;20805;-72
2021/04/07 07:36:16;;;;;;;4.25;2.20;;;;;;;;;;5067093;28;20428;-73
2021/04/07 07:38:52;;;;;;;1.00;0.73;;;;;;;;;;5065482;28;20164;-73
2021/04/07 07:41:19;;;;;;;1.17;1.07;;;;;;;;;;5064633;28;20390;-73
2021/04/07 07:43:45;;;;;;;0.77;0.63;;;;;;;;;;5055667;28;20410;-73
2021/04/07 07:46:12;;;;;;;0.80;0.50;;;;;;;;;;5059969;28;20496;-72
2021/04/07 07:48:38;;;;;;;0.90;0.70;;;;;;;;;;5055484;28;20418;-72
2021/04/07 07:51:24;;;;;;;1.57;1.47;;;;;;;;;;5055119;28;20456;-70
2021/04/07 07:53:51;;;;;;;2.80;0.80;;;;;;;;;;5068402;28;20418;-71
2021/04/07 07:56:18;;;;;;;0.70;0.60;;;;;;;;;;5056161;28;20549;-72
2021/04/07 07:58:50;;;;;;;0.70;0.60;;;;;;;;;;5046338;28;20411;-72
2021/04/07 08:01:18;;;;;;;1.73;1.07;;;;;;;;;;5052070;28;20927;-73
2021/04/07 08:03:44;;;;;;;0.70;0.50;;;;;;;;;;5065098;28;20493;-71
2021/04/07 08:06:10;;;;;;;1.10;0.80;;;;;;;;;;5046457;28;20487;-72
2021/04/07 08:08:36;;;;;;;0.90;0.60;;;;;;;;;;5052023;28;20414;-72
2021/04/07 08:11:03;;;;;;;0.93;0.83;;;;;;;;;;5047525;28;20448;-71
2021/04/07 08:13:33;;;;;;;0.77;0.63;;;;;;;;;;5066365;28;21115;-73
2021/04/07 08:15:59;;;;;;;0.70;0.50;;;;;;;;;;5061800;28;20414;-73
2021/04/07 08:18:25;;;;;;;0.70;0.50;;;;;;;;;;5061911;28;20417;-74
2021/04/07 08:20:52;;;;;;;3.37;1.13;;;;;;;;;;5071493;28;20442;-72
2021/04/07 08:23:18;;;;;;;1.00;0.70;;;;;;;;;;5071961;28;20410;-70
2021/04/07 08:25:46;;;;;;;0.70;0.40;;;;;;;;;;5067287;28;20415;-72
2021/04/07 08:28:12;;;;;;;1.00;0.57;;;;;;;;;;5057441;28;20429;-72
2021/04/07 08:30:38;;;;;;;1.00;0.83;;;;;;;;;;5060947;28;20486;-71
2021/04/07 08:33:05;;;;;;;0.90;0.73;;;;;;;;;;5070310;28;20442;-72
2021/04/07 08:35:31;;;;;;;0.70;0.50;;;;;;;;;;5050556;28;20442;-72
2021/04/07 08:37:58;;;;;;;2.87;0.70;;;;;;;;;;5034730;28;20424;-72
2021/04/07 08:40:24;;;;;;;0.80;0.70;;;;;;;;;;5062366;28;20443;-71
2021/04/07 08:42:52;;;;;;;2.10;1.10;;;;;;;;;;5049127;28;20414;-72
2021/04/07 08:45:18;;;;;;;1.53;0.90;;;;;;;;;;5072087;28;20402;-73
2021/04/07 08:47:52;;;;;;;1.87;0.70;;;;;;;;;;5071910;28;21109;-72
2021/04/07 08:50:18;;;;;;;2.77;0.70;;;;;;;;;;5053715;28;20818;-72
2021/04/07 08:52:45;;;;;;;1.23;0.60;;;;;;;;;;5053832;28;20510;-71
2021/04/07 08:55:14;;;;;;;1.07;0.67;;;;;;;;;;5051262;28;20882;-72
2021/04/07 08:57:41;;;;;;;2.03;1.23;;;;;;;;;;5037685;28;20422;-72
2021/04/07 09:00:14;;;;;;;0.80;0.50;;;;;;;;;;5052023;28;20928;-72
2021/04/07 09:02:53;;;;;;;5.80;0.77;;;;;;;;;;5058558;28;20414;-70
2021/04/07 09:05:31;;;;;;;1.63;1.53;;;;;;;;;;5072918;28;20417;-72
2021/04/07 09:07:58;;;;;;;5.10;1.57;;;;;;;;;;5069278;28;20418;-71
2021/04/07 09:10:24;;;;;;;0.90;0.60;;;;;;;;;;5071654;28;20454;-72
2021/04/07 09:12:52;;;;;;;2.30;0.60;;;;;;;;;;5053984;28;20946;-71
2021/04/07 09:15:18;;;;;;;0.70;0.60;;;;;;;;;;5062011;28;20411;-74
2021/04/07 09:17:45;;;;;;;1.63;0.83;;;;;;;;;;5066614;28;20421;-72
2021/04/07 09:20:11;;;;;;;4.60;1.97;;;;;;;;;;5068533;28;20521;-74
2021/04/07 09:22:47;;;;;;;1.10;0.80;;;;;;;;;;5064702;28;20437;-73
2021/04/07 09:25:18;;;;;;;1.67;1.13;;;;;;;;;;5055273;28;20962;-73
2021/04/07 09:27:44;;;;;;;3.00;1.43;;;;;;;;;;5064216;28;20945;-74
2021/04/07 09:30:10;;;;;;;1.67;0.93;;;;;;;;;;5063225;28;20455;-74
2021/04/07 09:32:40;;;;;;;1.00;0.90;;;;;;;;;;5057155;28;20497;-73
2021/04/07 09:35:10;;;;;;;3.33;1.23;;;;;;;;;;5060411;28;20424;-75
2021/04/07 09:37:38;;;;;;;0.80;0.73;;;;;;;;;;5049761;28;20995;-74
2021/04/07 09:40:04;;;;;;;1.20;0.73;;;;;;;;;;5066300;28;20802;-75
2021/04/07 09:42:31;;;;;;;3.37;1.10;;;;;;;;;;5063530;28;20415;-74
2021/04/07 09:44:58;;;;;;;0.80;0.77;;;;;;;;;;5057071;28;20457;-75
2021/04/07 09:47:30;;;;;;;1.17;1.03;;;;;;;;;;5039637;28;20574;-75
2021/04/07 09:49:56;;;;;;;1.77;1.17;;;;;;;;;;5061562;28;20469;-75
2021/04/07 09:52:22;;;;;;;1.73;1.17;;;;;;;;;;5043578;28;20839;-75
2021/04/07 09:54:48;;;;;;;1.20;1.10;;;;;;;;;;5059171;28;20446;-75
2021/04/07 09:57:14;;;;;;;1.10;1.00;;;;;;;;;;5064386;28;20423;-74
2021/04/07 09:59:44;;;;;;;1.03;0.60;;;;;;;;;;5071932;28;20423;-76
2021/04/07 10:02:13;;;;;;;1.30;1.20;;;;;;;;;;5064628;28;20518;-76
2021/04/07 10:04:40;;;;;;;0.70;0.50;;;;;;;;;;5073761;28;20414;-76
2021/04/07 10:07:10;;;;;;;0.70;0.50;;;;;;;;;;5093353;28;20400;-76
2021/04/07 10:09:37;;;;;;;1.43;1.33;;;;;;;;;;5076475;28;20432;-76
2021/04/07 10:12:03;;;;;;;1.23;0.50;;;;;;;;;;5037781;28;20443;-76
2021/04/07 10:14:29;;;;;;;0.70;0.50;;;;;;;;;;5049813;28;20426;-76
2021/04/07 10:16:55;;;;;;;0.80;0.53;;;;;;;;;;5055850;28;20798;-76
2021/04/07 10:19:27;;;;;;;0.90;0.63;;;;;;;;;;5067893;28;20415;-76
2021/04/07 10:21:58;;;;;;;0.70;0.50;;;;;;;;;;5066020;28;20505;-78
2021/04/07 10:24:24;;;;;;;1.80;1.07;;;;;;;;;;5065633;28;20414;-76
2021/04/07 10:26:50;;;;;;;0.97;0.60;;;;;;;;;;5050776;28;20764;-77
2021/04/07 10:29:23;;;;;;;1.43;0.90;;;;;;;;;;5070505;28;20451;-75
2021/04/07 10:31:58;;;;;;;4.63;1.23;;;;;;;;;;5056117;28;20507;-77
2021/04/07 10:34:34;;;;;;;1.20;0.80;;;;;;;;;;5091962;28;20405;-76
2021/04/07 10:37:01;;;;;;;1.33;0.80;;;;;;;;;;5071451;28;20543;-75
2021/04/07 10:39:35;;;;;;;0.70;0.40;;;;;;;;;;5084316;28;20450;-76
2021/04/07 10:42:02;;;;;;;0.70;0.50;;;;;;;;;;5080425;28;20493;-76
2021/04/07 10:44:29;;;;;;;0.70;0.50;;;;;;;;;;5066991;28;20417;-77
2021/04/07 10:46:55;;;;;;;2.70;0.60;;;;;;;;;;5053759;28;20419;-77
2021/04/07 10:49:22;;;;;;;0.70;0.60;;;;;;;;;;5063442;28;20442;-78
2021/04/07 10:52:04;;;;;;;2.13;0.50;;;;;;;;;;5069583;28;20487;-77
2021/04/07 10:54:30;;;;;;;0.80;0.57;;;;;;;;;;5066762;28;21045;-77
2021/04/07 10:57:17;;;;;;;0.90;0.90;;;;;;;;;;5072379;28;20429;-76
2021/04/07 10:59:46;;;;;;;0.90;0.60;;;;;;;;;;5063598;28;20433;-76
2021/04/07 11:02:15;;;;;;;1.60;1.30;;;;;;;;;;5070987;28;20499;-77
2021/04/07 11:04:41;;;;;;;1.20;0.80;;;;;;;;;;5063299;28;20560;-76
2021/04/07 11:07:11;;;;;;;0.70;0.40;;;;;;;;;;5073883;28;20459;-76
2021/04/07 11:09:42;;;;;;;0.90;0.50;;;;;;;;;;5058510;28;20814;-76
2021/04/07 11:12:08;;;;;;;0.70;0.43;;;;;;;;;;5073218;28;20402;-76
2021/04/07 11:14:34;;;;;;;1.00;0.90;;;;;;;;;;5070723;28;20389;-78
2021/04/07 11:17:01;;;;;;;1.57;0.50;;;;;;;;;;5038802;28;20909;-76
2021/04/07 11:19:37;;;;;;;0.70;0.40;;;;;;;;;;5052941;28;20438;-77
2021/04/07 11:22:04;;;;;;;0.70;0.40;;;;;;;;;;5058631;28;20898;-77
2021/04/07 11:24:31;;;;;;;1.73;1.27;;;;;;;;;;5057645;28;20418;-77
2021/04/07 11:26:57;;;;;;;5.27;1.43;;;;;;;;;;5069844;28;20414;-77
2021/04/07 11:29:23;;;;;;;1.20;0.50;;;;;;;;;;5064128;28;20459;-78
2021/04/07 11:31:55;;;;;;;0.70;0.50;;;;;;;;;;5043837;28;20515;-76
2021/04/07 11:34:27;;;;;;;0.70;0.40;;;;;;;;;;5077154;28;20995;-77
2021/04/07 11:42:21;;;;;;;1.53;0.67;;;;;;;;;;5081580;28;20487;-78
2021/04/07 11:44:47;;;;;;;0.70;0.50;;;;;;;;;;5088117;28;20422;-78
2021/04/07 11:47:14;;;;;;;0.80;0.63;;;;;;;;;;5069434;28;20422;-78
2021/04/07 11:49:40;;;;;;;1.40;1.00;;;;;;;;;;5077376;28;20521;-77
2021/04/07 11:52:06;;;;;;;0.80;0.60;;;;;;;;;;5078137;28;20951;-76
2021/04/07 11:54:32;;;;;;;0.80;0.50;;;;;;;;;;5082770;28;20398;-77
2021/04/07 11:56:58;;;;;;;1.97;0.97;;;;;;;;;;5076545;28;20417;-76
2021/04/07 11:59:25;;;;;;;1.53;0.90;;;;;;;;;;5066055;28;20429;-77
2021/04/07 12:01:57;;;;;;;0.83;0.60;;;;;;;;;;5077612;28;20914;-78
2021/04/07 12:04:28;;;;;;;1.00;0.50;;;;;;;;;;5062241;28;20425;-77
2021/04/07 12:06:54;;;;;;;1.13;0.80;;;;;;;;;;5063968;28;20419;-77
2021/04/07 12:09:21;;;;;;;4.10;0.83;;;;;;;;;;5065658;28;20397;-78
2021/04/07 12:11:47;;;;;;;0.70;0.50;;;;;;;;;;5075814;28;20513;-77
2021/04/07 12:14:13;;;;;;;0.80;0.60;;;;;;;;;;5080015;28;20425;-79
2021/04/07 12:16:39;;;;;;;1.17;1.07;;;;;;;;;;5078013;28;20411;-77
2021/04/07 12:19:06;;;;;;;0.70;0.40;;;;;;;;;;5070692;28;20447;-78
2021/04/07 12:21:32;;;;;;;0.70;0.40;;;;;;;;;;5066350;28;20457;-78
2021/04/07 12:23:58;;;;;;;1.17;0.60;;;;;;;;;;5082798;28;20410;-78
2021/04/07 12:26:24;;;;;;;0.70;0.53;;;;;;;;;;5073286;28;20468;-77
2021/04/07 12:28:50;;;;;;;0.80;0.60;;;;;;;;;;5071881;28;20385;-78
2021/04/07 12:31:19;;;;;;;1.13;0.80;;;;;;;;;;5053444;28;20963;-78
2021/04/07 12:34:03;;;;;;;0.80;0.63;;;;;;;;;;5079038;28;20438;-77
2021/04/07 12:36:30;;;;;;;0.70;0.50;;;;;;;;;;5059558;28;20397;-78
2021/04/07 12:38:57;;;;;;;0.80;0.80;;;;;;;;;;5060358;28;20499;-78
2021/04/07 12:43:59;;;;;;;0.70;0.50;;;;;;;;;;5058490;28;20431;-78
2021/04/07 12:46:25;;;;;;;1.57;0.77;;;;;;;;;;5070656;28;20423;-79
2021/04/07 12:48:51;;;;;;;0.80;0.60;;;;;;;;;;5078398;28;20424;-78
2021/04/07 12:51:18;;;;;;;0.70;0.50;;;;;;;;;;5083054;28;20457;-78
2021/04/07 12:53:45;;;;;;;0.80;0.67;;;;;;;;;;5076245;28;20430;-79
2021/04/07 12:56:15;;;;;;;0.80;0.50;;;;;;;;;;5080610;28;20384;-78
2021/04/07 12:58:41;;;;;;;0.70;0.50;;;;;;;;;;5079709;28;20417;-78
2021/04/07 13:01:07;;;;;;;1.43;0.63;;;;;;;;;;5059279;28;20429;-78
2021/04/07 13:03:33;;;;;;;1.03;0.50;;;;;;;;;;5062901;28;20783;-77
2021/04/07 13:05:59;;;;;;;2.80;1.43;;;;;;;;;;5066125;28;20516;-78
2021/04/07 13:08:25;;;;;;;0.70;0.40;;;;;;;;;;5047701;28;20460;-77
2021/04/07 13:10:51;;;;;;;6.70;1.10;;;;;;;;;;5064828;28;20464;-77
2021/04/07 13:13:17;;;;;;;0.87;0.50;;;;;;;;;;5067082;28;20802;-78
2021/04/07 13:15:43;;;;;;;0.80;0.60;;;;;;;;;;5067149;28;20426;-77
2021/04/07 13:18:09;;;;;;;0.70;0.50;;;;;;;;;;5051090;28;20381;-77
2021/04/07 13:20:35;;;;;;;3.30;1.17;;;;;;;;;;5052906;28;20832;-77
2021/04/07 13:23:02;;;;;;;6.63;0.63;;;;;;;;;;5055963;28;20407;-77
2021/04/07 13:25:28;;;;;;;0.80;0.70;;;;;;;;;;5038856;28;20407;-78
2021/04/07 13:27:54;;;;;;;1.00;0.77;;;;;;;;;;5074169;28;20966;-77
2021/04/07 13:30:23;;;;;;;1.10;0.70;;;;;;;;;;5076055;28;20459;-78
2021/04/07 13:33:00;;;;;;;2.10;0.60;;;;;;;;;;5070962;28;20417;-78
2021/04/07 13:35:35;;;;;;;0.70;0.50;;;;;;;;;;5055220;28;20483;-77
2021/04/07 13:38:04;;;;;;;16.23;1.33;;;;;;;;;;5064033;28;20408;-78
2021/04/07 13:40:51;;;;;;;0.70;0.50;;;;;;;;;;5069603;28;20445;-78
2021/04/07 13:43:20;;;;;;;1.57;1.37;;;;;;;;;;5059713;28;20498;-78
2021/04/07 13:45:46;;;;;;;0.70;0.50;;;;;;;;;;5050830;28;20418;-77
2021/04/07 13:48:25;;;;;;;1.10;1.00;;;;;;;;;;5048928;28;20427;-76
2021/04/07 13:50:51;;;;;;;0.80;0.50;;;;;;;;;;5054789;28;20461;-76
2021/04/07 13:53:19;;;;;;;1.57;0.93;;;;;;;;;;5055505;28;20465;-76
2021/04/07 13:55:49;;;;;;;8.20;1.27;;;;;;;;;;5058108;28;20891;-76
2021/04/07 13:58:15;;;;;;;0.70;0.47;;;;;;;;;;5068141;28;21405;-76
2021/04/07 14:00:42;;;;;;;0.70;0.50;;;;;;;;;;5074845;28;20521;-77
2021/04/07 14:03:08;;;;;;;1.97;1.80;;;;;;;;;;5077701;28;20380;-78
2021/04/07 14:05:34;;;;;;;1.43;1.10;;;;;;;;;;5074980;28;20413;-80
2021/04/07 14:08:01;;;;;;;0.87;0.60;;;;;;;;;;5057347;28;20377;-79
2021/04/07 14:10:27;;;;;;;1.37;0.80;;;;;;;;;;5075692;28;20478;-79
2021/04/07 14:13:14;;;;;;;0.80;0.60;;;;;;;;;;5067718;28;20905;-79
2021/04/07 14:15:42;;;;;;;0.70;0.50;;;;;;;;;;5068785;28;20448;-79
2021/04/07 14:18:09;;;;;;;0.70;0.50;;;;;;;;;;5073562;28;20417;-78
2021/04/07 14:20:35;;;;;;;0.70;0.50;;;;;;;;;;5069845;28;20813;-80
2021/04/07 14:23:01;;;;;;;0.90;0.60;;;;;;;;;;5072870;28;20438;-78
2021/04/07 14:25:30;;;;;;;2.60;1.43;;;;;;;;;;5063546;28;20418;-78
2021/04/07 14:28:00;;;;;;;0.70;0.50;;;;;;;;;;5053204;28;20486;-77
2021/04/07 14:30:27;;;;;;;0.80;0.50;;;;;;;;;;5068773;28;20464;-78
2021/04/07 14:32:53;;;;;;;12.43;2.50;;;;;;;;;;5071687;28;20488;-78
2021/04/07 14:35:21;;;;;;;1.93;0.73;;;;;;;;;;5070123;28;20456;-79
2021/04/07 14:37:48;;;;;;;0.70;0.50;;;;;;;;;;5057667;28;20418;-78
2021/04/07 14:40:14;;;;;;;0.70;0.50;;;;;;;;;;5057940;28;20436;-78
2021/04/07 14:42:40;;;;;;;0.70;0.50;;;;;;;;;;5057119;28;20913;-77
2021/04/07 14:45:07;;;;;;;6.87;0.77;;;;;;;;;;5045227;28;20460;-78
2021/04/07 14:47:33;;;;;;;0.87;0.50;;;;;;;;;;5060612;28;20493;-75
2021/04/07 14:50:00;;;;;;;0.70;0.40;;;;;;;;;;5053574;28;21151;-77
2021/04/07 14:52:27;;;;;;;0.80;0.60;;;;;;;;;;5067274;28;20419;-77